createdAt,value
2023-03-05T00:01:54.119Z,101382.38
2023-03-05T00:05:58.259Z,101386.97
2023-03-05T00:10:00.881Z,101380.66
2023-03-05T00:14:04.113Z,101383.22
2023-03-05T00:18:05.496Z,101380.97
2023-03-05T00:22:07.769Z,101372.59
2023-03-05T00:26:09.915Z,101371.50
2023-03-05T00:30:11.997Z,101376.09
2023-03-05T00:34:15.892Z,101374.09
2023-03-05T00:38:17.267Z,101376.50
2023-03-05T00:42:18.616Z,101361.47
2023-03-05T00:46:20.061Z,101366.66
2023-03-05T00:50:21.435Z,101356.53
2023-03-05T00:54:22.859Z,101349.91
2023-03-05T00:58:24.267Z,101351.81
2023-03-05T01:02:26.112Z,101345.88
2023-03-05T01:06:29.331Z,101340.16
2023-03-05T01:10:30.708Z,101334.50
2023-03-05T01:14:32.380Z,101336.34
2023-03-05T01:18:34.422Z,101338.84
2023-03-05T01:22:35.795Z,101334.00
2023-03-05T01:26:37.212Z,101325.38
2023-03-05T01:30:38.547Z,101316.00
2023-03-05T01:34:41.844Z,101317.91
2023-03-05T01:38:44.248Z,101312.63
2023-03-05T01:42:55.451Z,101310.19
2023-03-05T01:46:57.029Z,101304.72
2023-03-05T01:50:58.498Z,101302.16
2023-03-05T01:55:03.145Z,101292.00
2023-03-05T01:59:04.761Z,101291.06
2023-03-05T02:03:09.782Z,101292.25
2023-03-05T02:07:13.632Z,101280.94
2023-03-05T02:11:15.113Z,101275.34
2023-03-05T02:15:17.793Z,101270.25
2023-03-05T02:19:19.238Z,101262.88
2023-03-05T02:23:22.525Z,101258.28
2023-03-05T02:27:34.784Z,101261.66
2023-03-05T02:31:38.866Z,101257.81
2023-03-05T02:35:42.575Z,101258.94
2023-03-05T02:39:43.920Z,101245.03
2023-03-05T02:43:45.237Z,101240.78
2023-03-05T02:47:46.696Z,101245.94
2023-03-05T02:51:48.065Z,101229.81
2023-03-05T02:55:49.829Z,101227.88
2023-03-05T02:59:51.350Z,101229.00
2023-03-05T03:03:52.714Z,101227.81
2023-03-05T03:07:54.162Z,101221.41
2023-03-05T03:11:55.646Z,101225.50
2023-03-05T03:16:09.636Z,101225.53
2023-03-05T03:20:16.630Z,101220.25
2023-03-05T03:24:17.979Z,101220.94
2023-03-05T03:28:19.336Z,101216.03
2023-03-05T03:32:20.820Z,101209.53
2023-03-05T03:36:22.173Z,101201.41
2023-03-05T03:40:23.472Z,101199.38
2023-03-05T03:44:24.813Z,101194.41
2023-03-05T03:48:26.244Z,101196.88
2023-03-05T03:52:27.634Z,101187.41
2023-03-05T03:56:28.945Z,101189.00
2023-03-05T04:00:30.305Z,101189.00
2023-03-05T04:04:31.702Z,101179.94
2023-03-05T04:08:33.161Z,101176.06
2023-03-05T04:12:34.554Z,101171.75
2023-03-05T04:16:35.856Z,101162.38
2023-03-05T04:20:37.253Z,101165.00
2023-03-05T04:24:38.744Z,101163.00
2023-03-05T04:28:40.085Z,101158.41
2023-03-05T04:32:41.778Z,101161.97
2023-03-05T04:36:43.143Z,101148.19
2023-03-05T04:40:45.433Z,101149.53
2023-03-05T04:44:48.931Z,101152.78
2023-03-05T04:48:50.236Z,101137.06
2023-03-05T04:52:51.730Z,101138.53
2023-03-05T04:56:53.055Z,101137.25
2023-03-05T05:00:54.387Z,101134.31
2023-03-05T05:04:55.797Z,101128.19
2023-03-05T05:08:57.182Z,101130.53
2023-03-05T05:12:58.577Z,101126.03
2023-03-05T05:17:00.355Z,101126.88
2023-03-05T05:21:01.740Z,101122.22
2023-03-05T05:25:03.449Z,101113.47
2023-03-05T05:29:04.850Z,101107.88
2023-03-05T05:33:06.234Z,101106.63
2023-03-05T05:37:07.573Z,101110.09
2023-03-05T05:41:14.690Z,101107.59
2023-03-05T05:45:16.191Z,101113.03
2023-03-05T05:49:17.633Z,101106.81
2023-03-05T05:53:18.922Z,101111.56
2023-03-05T05:57:20.299Z,101103.91
2023-03-05T06:01:26.400Z,101105.66
2023-03-05T06:05:27.700Z,101108.53
2023-03-05T06:09:29.614Z,101099.91
2023-03-05T06:13:30.967Z,101093.91
2023-03-05T06:17:32.336Z,101098.97
2023-03-05T06:21:33.943Z,101103.38
2023-03-05T06:25:35.229Z,101091.69
2023-03-05T06:29:36.575Z,101100.97
2023-03-05T06:33:39.089Z,101100.00
2023-03-05T06:37:40.371Z,101096.22
2023-03-05T06:41:41.687Z,101096.22
2023-03-05T06:45:43.147Z,101091.69
2023-03-05T06:49:44.490Z,101094.41
2023-03-05T06:53:48.307Z,101089.56
2023-03-05T06:57:50.681Z,101088.19
2023-03-05T07:01:51.993Z,101085.56
2023-03-05T07:05:53.302Z,101083.38
2023-03-05T07:09:54.739Z,101086.84
2023-03-05T07:13:56.037Z,101078.66
2023-03-05T07:17:57.372Z,101075.47
2023-03-05T07:21:58.638Z,101064.19
2023-03-05T07:26:04.097Z,101064.19
2023-03-05T07:30:06.214Z,101066.78
2023-03-05T07:34:10.237Z,101061.19
2023-03-05T07:38:11.564Z,101067.69
2023-03-05T07:42:12.971Z,101071.03
2023-03-05T07:46:17.505Z,101064.94
2023-03-05T07:50:18.928Z,101062.53
2023-03-05T07:54:20.205Z,101060.28
2023-03-05T07:58:21.693Z,101067.72
2023-03-05T08:02:23.243Z,101055.94
2023-03-05T08:06:24.639Z,101058.22
2023-03-05T08:10:26.113Z,101053.78
2023-03-05T08:14:27.603Z,101050.25
2023-03-05T08:18:28.889Z,101044.03
2023-03-05T08:22:30.222Z,101041.53
2023-03-05T08:26:33.829Z,101039.25
2023-03-05T08:30:35.199Z,101047.28
2023-03-05T08:34:36.533Z,101037.38
2023-03-05T08:38:37.849Z,101036.75
2023-03-05T08:42:39.183Z,101028.69
2023-03-05T08:46:40.570Z,101025.63
2023-03-05T08:50:42.080Z,101021.13
2023-03-05T08:54:43.389Z,101021.97
2023-03-05T08:58:46.312Z,101016.97
2023-03-05T09:02:48.133Z,101007.66
2023-03-05T09:06:49.431Z,101009.34
2023-03-05T09:10:50.706Z,101010.63
2023-03-05T09:14:54.759Z,101000.75
2023-03-05T09:18:56.317Z,101006.13
2023-03-05T09:22:57.629Z,100997.19
2023-03-05T09:27:00.274Z,100985.34
2023-03-05T09:31:03.884Z,100986.47
2023-03-05T09:35:06.182Z,100981.88
2023-03-05T09:39:07.732Z,100976.97
2023-03-05T09:43:25.736Z,100973.66
2023-03-05T09:47:51.639Z,100959.81
2023-03-05T09:52:01.673Z,100952.91
2023-03-05T09:56:09.826Z,100951.44
2023-03-05T10:00:35.476Z,100940.84
2023-03-05T10:04:57.724Z,100937.41
2023-03-05T10:09:16.907Z,100939.34
2023-03-05T10:13:25.205Z,100943.06
2023-03-05T10:17:46.036Z,100955.19
2023-03-05T10:22:30.716Z,100942.34
2023-03-05T10:26:45.686Z,100949.09
2023-03-05T10:30:58.700Z,100937.56
2023-03-05T10:35:13.559Z,100921.84
2023-03-05T10:39:42.048Z,100927.81
2023-03-05T10:44:00.739Z,100926.97
2023-03-05T10:48:12.716Z,100930.63
2023-03-05T10:52:18.838Z,100926.19
2023-03-05T10:56:23.277Z,100915.28
2023-03-05T11:00:27.789Z,100912.31
2023-03-05T11:04:32.148Z,100906.88
2023-03-05T11:08:35.790Z,100905.16
2023-03-05T11:12:38.883Z,100899.88
2023-03-05T11:16:48.688Z,100903.34
2023-03-05T11:20:50.648Z,100896.88
2023-03-05T11:25:10.659Z,100887.81
2023-03-05T11:29:18.783Z,100874.84
2023-03-05T11:33:23.410Z,100879.97
2023-03-05T11:37:30.698Z,100879.28
2023-03-05T11:41:59.550Z,100868.78
2023-03-05T11:46:04.743Z,100872.91
2023-03-05T11:50:26.791Z,100863.81
2023-03-05T11:54:40.203Z,100857.88
2023-03-05T11:58:49.826Z,100857.75
2023-03-05T12:02:54.421Z,100851.19
2023-03-05T12:07:00.359Z,100833.09
2023-03-05T12:11:12.614Z,100842.41
2023-03-05T12:15:38.693Z,100822.22
2023-03-05T12:20:01.732Z,100818.56
2023-03-05T12:24:23.020Z,100815.63
2023-03-05T12:28:30.549Z,100796.38
2023-03-05T12:32:31.821Z,100795.84
2023-03-05T12:36:35.339Z,100784.59
2023-03-05T12:40:36.693Z,100776.78
2023-03-05T12:44:39.649Z,100772.28
2023-03-05T12:48:43.691Z,100759.66
2023-03-05T12:52:45.919Z,100755.47
2023-03-05T12:56:47.755Z,100747.53
2023-03-05T13:01:04.476Z,100732.97
2023-03-05T13:05:26.513Z,100737.97
2023-03-05T13:09:33.612Z,100728.91
2023-03-05T13:13:43.113Z,100726.91
2023-03-05T13:18:03.239Z,100728.69
2023-03-05T13:22:11.739Z,100719.63
2023-03-05T13:26:19.112Z,100707.91
2023-03-05T13:30:23.270Z,100698.22
2023-03-05T13:34:37.415Z,100699.56
2023-03-05T13:38:46.932Z,100690.19
2023-03-05T13:42:48.902Z,100689.72
2023-03-05T13:46:50.274Z,100690.03
2023-03-05T13:50:57.542Z,100693.00
2023-03-05T13:55:00.223Z,100680.50
2023-03-05T13:59:01.586Z,100676.69
2023-03-05T14:03:23.622Z,100665.06
2023-03-05T14:07:37.485Z,100665.66
2023-03-05T14:11:38.819Z,100652.78
2023-03-05T14:15:40.502Z,100659.78
2023-03-05T14:19:41.971Z,100645.41
2023-03-05T14:23:46.395Z,100648.47
2023-03-05T14:27:48.052Z,100636.41
2023-03-05T14:32:00.202Z,100628.22
2023-03-05T14:36:02.955Z,100618.25
2023-03-05T14:40:07.975Z,100616.53
2023-03-05T14:44:17.352Z,100604.94
2023-03-05T14:48:18.994Z,100602.94
2023-03-05T14:52:23.796Z,100609.22
2023-03-05T14:56:28.800Z,100593.75
2023-03-05T15:00:30.677Z,100586.25
2023-03-05T15:04:32.050Z,100592.09
2023-03-05T15:08:33.477Z,100566.69
2023-03-05T15:12:34.981Z,100564.75
2023-03-05T15:16:36.425Z,100566.88
2023-03-05T15:20:39.753Z,100564.16
2023-03-05T15:24:41.639Z,100553.84
2023-03-05T15:28:43.506Z,100551.09
2023-03-05T15:32:44.795Z,100544.41
2023-03-05T15:36:46.199Z,100537.88
2023-03-05T15:40:47.916Z,100539.69
2023-03-05T15:44:49.382Z,100532.22
2023-03-05T15:48:50.772Z,100527.50
2023-03-05T15:52:52.296Z,100521.03
2023-03-05T15:56:53.840Z,100516.94
2023-03-05T16:00:55.154Z,100506.47
2023-03-05T16:04:56.630Z,100501.00
2023-03-05T16:09:03.769Z,100507.53
2023-03-05T16:13:12.104Z,100494.56
2023-03-05T16:17:15.092Z,100484.97
2023-03-05T16:21:16.643Z,100484.28
2023-03-05T16:25:18.147Z,100493.34
2023-03-05T16:29:19.548Z,100478.19
2023-03-05T16:33:20.883Z,100483.38
2023-03-05T16:37:23.883Z,100481.50
2023-03-05T16:41:26.587Z,100478.63
2023-03-05T16:45:27.929Z,100473.91
2023-03-05T16:49:29.886Z,100470.06
2023-03-05T16:53:31.539Z,100468.13
2023-03-05T16:57:32.807Z,100468.06
2023-03-05T17:01:34.373Z,100457.88
2023-03-05T17:05:36.502Z,100454.81
2023-03-05T17:09:38.582Z,100457.16
2023-03-05T17:13:40.874Z,100451.94
2023-03-05T17:17:42.237Z,100451.63
2023-03-05T17:21:43.680Z,100455.66
2023-03-05T17:25:45.007Z,100456.00
2023-03-05T17:29:46.531Z,100454.38
2023-03-05T17:33:47.818Z,100445.28
2023-03-05T17:37:49.986Z,100445.19
2023-03-05T17:41:51.393Z,100440.09
2023-03-05T17:45:52.772Z,100436.75
2023-03-05T17:49:54.189Z,100434.41
2023-03-05T17:53:55.707Z,100438.69
2023-03-05T17:57:57.048Z,100434.28
2023-03-05T18:01:58.510Z,100444.03
2023-03-05T18:05:59.886Z,100438.00
2023-03-05T18:10:01.334Z,100444.59
2023-03-05T18:14:02.905Z,100440.75
2023-03-05T18:18:04.277Z,100435.81
2023-03-05T18:22:05.577Z,100438.25
2023-03-05T18:26:06.902Z,100429.66
2023-03-05T18:30:09.073Z,100420.72
2023-03-05T18:34:10.393Z,100422.31
2023-03-05T18:38:11.910Z,100420.59
2023-03-05T18:42:13.858Z,100410.94
2023-03-05T18:46:15.280Z,100407.06
2023-03-05T18:50:18.473Z,100407.47
2023-03-05T18:54:19.814Z,100407.16
2023-03-05T18:58:22.098Z,100399.59
2023-03-05T19:02:24.386Z,100395.28
2023-03-05T19:06:25.699Z,100399.09
2023-03-05T19:10:27.609Z,100402.16
2023-03-05T19:14:28.989Z,100397.50
2023-03-05T19:18:57.018Z,100400.16
2023-03-05T19:22:58.287Z,100396.88
2023-03-05T19:27:01.166Z,100381.69
2023-03-05T19:31:02.601Z,100376.66
2023-03-05T19:35:04.292Z,100376.97
2023-03-05T19:39:07.246Z,100376.97
2023-03-05T19:43:08.696Z,100376.78
2023-03-05T19:47:10.024Z,100369.75
2023-03-05T19:51:13.966Z,100368.78
2023-03-05T19:55:15.402Z,100363.81
2023-03-05T19:59:18.588Z,100366.72
2023-03-05T20:03:19.916Z,100370.81
2023-03-05T20:07:21.358Z,100367.94
2023-03-05T20:11:23.581Z,100353.31
2023-03-05T20:15:29.127Z,100353.44
2023-03-05T20:19:30.548Z,100358.31
2023-03-05T20:23:31.998Z,100351.84
2023-03-05T20:27:33.717Z,100346.91
2023-03-05T20:31:37.004Z,100344.88
2023-03-05T20:35:38.570Z,100345.78
2023-03-05T20:39:39.933Z,100342.63
2023-03-05T20:43:44.753Z,100334.50
2023-03-05T20:47:46.453Z,100327.50
2023-03-05T20:51:49.800Z,100329.09
2023-03-05T20:55:51.367Z,100325.91
2023-03-05T20:59:52.655Z,100313.00
2023-03-05T21:03:57.134Z,100309.31
2023-03-05T21:08:00.664Z,100307.63
2023-03-05T21:12:02.168Z,100308.56
2023-03-05T21:16:14.076Z,100304.53
2023-03-05T21:20:20.139Z,100303.69
2023-03-05T21:25:00.771Z,100300.78
2023-03-05T21:29:02.145Z,100290.56
2023-03-05T21:33:09.609Z,100284.22
2023-03-05T21:37:11.850Z,100282.88
2023-03-05T21:41:13.473Z,100271.38
2023-03-05T21:45:18.357Z,100273.44
2023-03-05T21:49:19.630Z,100264.09
2023-03-05T21:53:22.317Z,100255.28
2023-03-05T21:57:24.219Z,100255.59
2023-03-05T22:01:25.577Z,100245.22
2023-03-05T22:05:26.924Z,100236.31
2023-03-05T22:09:28.378Z,100227.38
2023-03-05T22:13:29.731Z,100237.09
2023-03-05T22:17:31.061Z,100222.44
2023-03-05T22:21:32.589Z,100215.94
2023-03-05T22:25:34.750Z,100218.03
2023-03-05T22:29:36.094Z,100216.16
2023-03-05T22:33:37.779Z,100201.94
2023-03-05T22:37:41.140Z,100200.31
2023-03-05T22:41:42.428Z,100187.47
2023-03-05T22:45:43.945Z,100185.59
2023-03-05T22:49:46.916Z,100193.91
2023-03-05T22:53:48.479Z,100184.34
2023-03-05T22:57:49.910Z,100189.22
2023-03-05T23:01:51.338Z,100190.19
2023-03-05T23:05:52.867Z,100187.56
2023-03-05T23:09:57.485Z,100179.22
2023-03-05T23:13:58.834Z,100165.06
2023-03-05T23:18:01.062Z,100172.94
2023-03-05T23:22:03.479Z,100173.13
2023-03-05T23:26:04.984Z,100166.69
2023-03-05T23:30:17.121Z,100161.53
2023-03-05T23:34:18.472Z,100165.56
2023-03-05T23:38:20.645Z,100163.34
2023-03-05T23:42:22.069Z,100161.31
2023-03-05T23:46:23.430Z,100158.19
2023-03-05T23:50:31.218Z,100148.50
2023-03-05T23:54:32.538Z,100150.59
2023-03-05T23:58:35.556Z,100148.63
